Terminal Aerodrome Forecast
Issued by NWS

Home | Current Version | Previous Version | Text Only | Print | Product List | Glossary On
Versions: 1 2 3 4 5 6 7 8 9 10 11 12 13 14 15 16 17
000
FTUS41 KCAR 261700 RRA
TAFHUL
TAF
KHUL 261751Z 2618/2718 23013KT P6SM BKN250
     FM262300 20006KT P6SM BKN060
     FM271000 18006KT P6SM BKN025
     FM271600 18010G20KT P6SM -SHRA OVC030=

USA.gov is the U.S. government's official web portal to all federal, state and local government web resources and services.